Flight Track Log - Related Links

Times and Time Zones

All times are in EDT time to prevent confusion due to time zone crossing. See the DAL1562 flight status page for this flight to view local times or setup timezone preferences in your user account.

Time Position Orientation Groundspeed Altitude Reporting Facility
EDT Latitude Longitude Course Direction KTS MPH feet Rate Location/Type
Sat 04:41:44 PM 39.8603 -75.2769 270° West 145 167 1,100  Level FAA TRACON SMA TRACON (SMA)
Sat 04:42:04 PM 39.8567 -75.2922 253° West 146 168 1,500 1,350 Climbing FAA TRACON SMA TRACON (SMA)
Sat 04:42:24 PM 39.8519 -75.3136 254° West 204 235 2,000 2,700 Climbing FAA TRACON SMA TRACON (SMA)
Sat 04:42:44 PM 39.8450 -75.3439 253° West 228 262 3,300 3,600 Climbing FAA TRACON SMA TRACON (SMA)
Sat 04:43:04 PM 39.8400 -75.3664 254° West 229 264 4,400 3,750 Climbing FAA TRACON SMA TRACON (SMA)
Sat 04:43:24 PM 39.8378 -75.3950 264° West 246 283 5,800 4,200 Climbing FAA TRACON SMA TRACON (SMA)
Sat 04:43:44 PM 39.8400 -75.4300 275° West 256 295 7,200 4,050 Climbing FAA TRACON SMA TRACON (SMA)
Sat 04:44:00 PM 39.9036 -75.6143 288° West  Level FlightAware Approximate
Sat 04:44:04 PM 39.8422 -75.4581 276° West 252 290 8,500  Level FAA TRACON SMA TRACON (SMA)
Sat 04:44:24 PM 39.8447 -75.4850 277° West 245 282 9,500 2,250 Climbing FAA TRACON SMA TRACON (SMA)
Sat 04:44:44 PM 39.8481 -75.5200 277° West 254 292 10,000 585 Climbing FAA TRACON SMA TRACON (SMA)
Sat 04:45:00 PM 39.9044 -75.7402 258° West  Level FlightAware Approximate
Sat 04:45:05 PM 39.8508 -75.5503 277° West 273 314 9,900  Level FAA TRACON SMA TRACON (SMA)
Sat 04:45:25 PM 39.8536 -75.5794 277° West 273 314 10,000 154 Climbing FAA TRACON SMA TRACON (SMA)
Sat 04:45:44 PM 39.8553 -75.6122 274° West 280 322 10,000 923 Level FAA TRACON SMA TRACON (SMA)
Sat 04:46:00 PM 39.9001 -75.8699 270° West  Level FlightAware Approximate
Sat 04:46:04 PM 39.8589 -75.6550 276° West 307 353 10,600  Level FAA TRACON SMA TRACON (SMA)
Sat 04:46:24 PM 39.8625 -75.6900 278° West 329 379 11,300 2,700 Climbing FAA TRACON SMA TRACON (SMA)
Sat 04:46:44 PM 39.8664 -75.7275 278° West 329 379 12,400 3,300 Climbing FAA TRACON SMA TRACON (SMA)
Sat 04:47:04 PM 39.8717 -75.7742 278° West 332 382 13,500 3,000 Climbing FAA TRACON SMA TRACON (SMA)
Sat 04:47:24 PM 39.8742 -75.8094 275° West 337 388 14,400 2,634 Climbing FAA TRACON SMA TRACON (SMA)
Sat 04:47:45 PM 39.8772 -75.8494 276° West 341 392 15,300 3,150 Climbing FAA TRACON SMA TRACON (SMA)
Sat 04:48:04 PM 39.8814 -75.8978 276° West 345 397 16,500 3,231 Climbing FAA TRACON SMA TRACON (SMA)
Sat 04:48:24 PM 39.8847 -75.9364 276° West 347 399 17,400 2,100 Climbing FAA TRACON SMA TRACON (SMA)
Sat 04:48:44 PM 39.8889 -75.9744 278° West 348 400 17,900 1,976 Climbing FAA TRACON SMA TRACON (SMA)
Sat 04:51:11 PM 39.9089 -76.3000 275° West 372 428 22,900 1,817 Climbing New York Center
Sat 04:52:12 PM 39.9169 -76.4358 274° West 372 428 24,200 1,563 Climbing New York Center
Sat 04:53:10 PM 39.9208 -76.5717 272° West 377 434 26,000 1,729 Climbing New York Center
Sat 04:54:10 PM 39.9286 -76.7103 274° West 382 440 27,600 1,800 Climbing New York Center
Sat 04:55:10 PM 39.9531 -76.8450 283° West 387 445 29,600 1,835 Climbing New York Center
Sat 04:56:11 PM 39.9769 -76.9828 283° West 392 451 31,300 1,488 Climbing New York Center
Sat 04:57:11 PM 40.0014 -77.1150 284° West 392 451 32,600 1,052 Climbing New York Center
Sat 04:58:45 PM 40.0414 -77.3233 284° West 397 457 34,000 545 Climbing Cleveland Center
Sat 04:59:45 PM 40.0678 -77.4522 285° West 384 442 34,000  Level Cleveland Center
Sat 05:00:45 PM 40.0903 -77.5842 283° West 374 430 34,000  Level Cleveland Center
Sat 05:01:45 PM 40.1144 -77.7161 284° West 374 430 34,000  Level Cleveland Center
Sat 05:02:45 PM 40.1364 -77.8456 283° West 374 430 34,000  Level Cleveland Center
Sat 05:03:45 PM 40.1353 -77.9706 269° West 374 430 34,000  Level Cleveland Center
Sat 05:04:45 PM 40.1528 -78.1058 280° West 374 430 34,000  Level Cleveland Center
Sat 05:05:45 PM 40.1806 -78.2406 285° West 379 436 34,000  Level Cleveland Center
Sat 05:06:45 PM 40.2083 -78.3756 285° West 385 443 34,000  Level Cleveland Center
Sat 05:07:45 PM 40.2358 -78.5106 285° West 391 450 34,000  Level Cleveland Center
Sat 05:08:45 PM 40.2633 -78.6431 285° West 391 450 34,000  Level Cleveland Center
Sat 05:09:45 PM 40.2906 -78.7758 285° West 391 450 34,000  Level Cleveland Center
Sat 05:10:45 PM 40.3175 -78.9083 285° West 386 444 34,000  Level Cleveland Center
Sat 05:11:45 PM 40.3444 -79.0439 285° West 386 444 34,000  Level Cleveland Center
Sat 05:12:45 PM 40.3711 -79.1769 285° West 386 444 34,000 -350 Level Cleveland Center
Sat 05:13:45 PM 40.4022 -79.3261 285° West 386 444 33,300 -1,200 Descending Cleveland Center
Sat 05:14:45 PM 40.4283 -79.4458 286° West 386 444 31,600 -1,250 Descending Cleveland Center
Sat 05:15:45 PM 40.4567 -79.5844 285° West 386 444 30,800 -700 Descending Cleveland Center
Sat 05:16:45 PM 40.4872 -79.7314 285° West 391 450 30,200 -400 Descending Cleveland Center
Sat 05:17:45 PM 40.5111 -79.8622 284° West 386 444 30,000 -100 Descending Cleveland Center
Sat 05:18:45 PM 40.5367 -79.9931 284° West 380 437 30,000  Level Cleveland Center
Sat 05:19:45 PM 40.5561 -80.1131 282° West 372 428 30,000  Level Cleveland Center
Sat 05:20:45 PM 40.5817 -80.2442 284° West 372 428 30,000  Level Cleveland Center
Sat 05:21:45 PM 40.6089 -80.3889 284° West 372 428 30,000  Level Cleveland Center
Sat 05:22:45 PM 40.6319 -80.5203 283° West 372 428 30,000  Level Cleveland Center
Sat 05:23:45 PM 40.6572 -80.6542 284° West 372 428 30,000  Level Cleveland Center
Sat 05:24:45 PM 40.6944 -80.7747 292° West 372 428 30,000  Level Cleveland Center
Sat 05:25:45 PM 40.7525 -80.8900 304° West 372 428 30,000  Level Cleveland Center
Sat 05:26:45 PM 40.8106 -81.0083 303° West 372 428 30,000  Level Cleveland Center
Sat 05:27:45 PM 40.8664 -81.1267 302° West 382 440 30,000  Level Cleveland Center
Sat 05:28:45 PM 40.9219 -81.2453 302° West 382 440 30,000  Level Cleveland Center
Sat 05:29:45 PM 40.9714 -81.3475 303° West 388 447 30,000  Level Cleveland Center
Sat 05:30:45 PM 41.0311 -81.4694 303° West 388 447 30,000 -150 Level Cleveland Center
Sat 05:31:45 PM 41.0842 -81.5858 301° West 383 441 29,700 -600 Descending Cleveland Center
Sat 05:32:45 PM 41.1497 -81.7136 304° West 383 441 28,800 -700 Descending Cleveland Center
Sat 05:33:45 PM 41.2028 -81.8306 301° West 383 441 28,300 -700 Descending Cleveland Center
Sat 05:34:45 PM 41.2556 -81.9447 302° West 378 435 27,400 -1,350 Descending Cleveland Center
Sat 05:35:45 PM 41.3083 -82.0564 302° West 372 428 25,600 -1,850 Descending Cleveland Center
Sat 05:36:45 PM 41.3569 -82.1628 301° West 348 400 23,700 -1,750 Descending Cleveland Center
Sat 05:37:45 PM 41.4161 -82.2583 310° West 341 392 22,100 -1,600 Descending Cleveland Center
Sat 05:38:45 PM 41.4650 -82.3428 308° West 335 386 20,500 -1,700 Descending Cleveland Center
Sat 05:39:45 PM 41.5197 -82.4331 309° West 317 365 18,700 -1,794 Descending Cleveland Center
Sat 05:40:22 PM 41.5583 -82.4978 309° West 303 349 17,600 -1,700 Descending Cleveland Center
Sat 05:40:45 PM 41.5725 -82.5233 307° West 301 346 17,000 -2,073 Descending Cleveland Center
Sat 05:41:17 PM 41.6069 -82.5797 309° West 305 351 15,700 -1,900 Descending Cleveland Center
Sat 05:41:45 PM 41.6250 -82.6111 308° West 306 352 15,100 -1,672 Descending Cleveland Center
Sat 05:42:18 PM 41.6617 -82.6678 311° West 312 359 14,000 -2,000 Descending Cleveland Center
Sat 05:42:45 PM 41.6778 -82.7044 300° West 306 352 13,100 -1,869 Descending Cleveland Center
Sat 05:43:19 PM 41.7142 -82.7583 312° West 307 353 12,100 -1,100 Descending Cleveland Center
Sat 05:43:45 PM 41.7322 -82.7897 308° West 306 352 12,000 -90 Descending Cleveland Center
Sat 05:44:26 PM 41.7833 -82.8500 319° Northwest 312 359 12,000  Level Cleveland Center
Sat 05:44:45 PM 41.7956 -82.8642 319° Northwest 306 352 12,000  Level Cleveland Center
Sat 05:45:27 PM 41.8486 -82.9247 320° Northwest 309 356 12,000  Level Cleveland Center
Sat 05:45:45 PM 41.8586 -82.9389 313° West 306 352 12,000  Level Cleveland Center
Sat 05:46:28 PM 41.9114 -83.0050 317° Northwest 309 356 12,000  Level Cleveland Center
Sat 05:46:45 PM 41.9258 -83.0197 323° Northwest 311 358 12,000 -873 Level Cleveland Center
Sat 05:47:23 PM 41.9703 -83.0744 318° Northwest 307 353 11,200 -1,000 Descending Cleveland Center
Sat 05:47:45 PM 41.9867 -83.0944 318° Northwest 311 358 11,000 -164 Descending Cleveland Center
Sat 05:48:36 PM 42.0353 -83.1553 317° Northwest 236 272 11,000  Level Cleveland Center
Sat 05:49:30 PM 42.0781 -83.2072 318° Northwest 204 235 11,000  Level Cleveland Center
Sat 05:49:45 PM 42.0842 -83.2103 340° North 245 282 11,000 -218 Level Cleveland Center
Sat 05:50:25 PM 42.1361 -83.2208 351° North 227 261 10,800 -1,158 Descending Cleveland Center
Sat 05:51:39 PM 42.2075 -83.1958 15° North 239 275 8,800 -1,535 Descending Cleveland Center
Sat 05:52:34 PM 42.2603 -83.1586 28° Northeast 232 267 7,500 -1,500 Descending Cleveland Center
Sat 05:53:35 PM 42.3194 -83.1303 19° North 224 258 5,900 -1,525 Descending Cleveland Center
Sat 05:54:36 PM 42.3514 -83.1933 304° West 197 227 4,400 -1,254 Descending Cleveland Center
Sat 05:55:49 PM 42.3144 -83.2619 234° Southwest 176 203 3,100 -1,068 Descending Cleveland Center

Login

Don't have an account? Register now (free) for customized features, flight alerts, and more!